sensor_id;sensor_type;location;lat;lon;timestamp;P1;durP1;ratioP1;P2;durP2;ratioP2
73154;SDS011;66341;52.418;7.382;2023-04-23T00:00:57;1.21;;;1.21;;
73154;SDS011;66341;52.418;7.382;2023-04-23T00:03:26;1.33;;;1.33;;
73154;SDS011;66341;52.418;7.382;2023-04-23T00:05:53;1.31;;;1.31;;
73154;SDS011;66341;52.418;7.382;2023-04-23T00:08:22;1.43;;;1.43;;
73154;SDS011;66341;52.418;7.382;2023-04-23T00:10:47;1.35;;;1.35;;
73154;SDS011;66341;52.418;7.382;2023-04-23T00:13:13;1.42;;;1.42;;
73154;SDS011;66341;52.418;7.382;2023-04-23T00:15:39;1.30;;;1.30;;
73154;SDS011;66341;52.418;7.382;2023-04-23T00:18:05;1.35;;;1.35;;
73154;SDS011;66341;52.418;7.382;2023-04-23T00:20:30;1.33;;;1.33;;
73154;SDS011;66341;52.418;7.382;2023-04-23T00:22:56;1.33;;;1.33;;
73154;SDS011;66341;52.418;7.382;2023-04-23T00:25:22;1.35;;;1.35;;
73154;SDS011;66341;52.418;7.382;2023-04-23T00:27:47;1.27;;;1.27;;
73154;SDS011;66341;52.418;7.382;2023-04-23T00:30:13;1.44;;;1.44;;
73154;SDS011;66341;52.418;7.382;2023-04-23T00:32:39;1.13;;;1.13;;
73154;SDS011;66341;52.418;7.382;2023-04-23T00:35:06;1.30;;;1.30;;
73154;SDS011;66341;52.418;7.382;2023-04-23T00:37:31;1.32;;;1.32;;
73154;SDS011;66341;52.418;7.382;2023-04-23T00:39:57;1.53;;;1.53;;
73154;SDS011;66341;52.418;7.382;2023-04-23T00:42:23;1.38;;;1.38;;
73154;SDS011;66341;52.418;7.382;2023-04-23T00:44:49;1.14;;;1.14;;
73154;SDS011;66341;52.418;7.382;2023-04-23T00:47:15;1.26;;;1.26;;
73154;SDS011;66341;52.418;7.382;2023-04-23T00:49:42;1.27;;;1.27;;
73154;SDS011;66341;52.418;7.382;2023-04-23T00:52:08;1.31;;;1.31;;
73154;SDS011;66341;52.418;7.382;2023-04-23T00:54:34;1.15;;;1.15;;
73154;SDS011;66341;52.418;7.382;2023-04-23T00:57:00;1.33;;;1.33;;
73154;SDS011;66341;52.418;7.382;2023-04-23T00:59:27;1.31;;;1.31;;
73154;SDS011;66341;52.418;7.382;2023-04-23T01:01:53;1.34;;;1.34;;
73154;SDS011;66341;52.418;7.382;2023-04-23T01:04:23;1.34;;;1.34;;
73154;SDS011;66341;52.418;7.382;2023-04-23T01:06:52;1.30;;;1.30;;
73154;SDS011;66341;52.418;7.382;2023-04-23T01:09:19;1.41;;;1.41;;
73154;SDS011;66341;52.418;7.382;2023-04-23T01:11:45;1.25;;;1.25;;
73154;SDS011;66341;52.418;7.382;2023-04-23T01:14:11;1.20;;;1.20;;
73154;SDS011;66341;52.418;7.382;2023-04-23T01:16:37;1.38;;;1.38;;
73154;SDS011;66341;52.418;7.382;2023-04-23T01:19:07;1.34;;;1.34;;
73154;SDS011;66341;52.418;7.382;2023-04-23T01:21:34;1.27;;;1.27;;
73154;SDS011;66341;52.418;7.382;2023-04-23T01:24:04;1.30;;;1.30;;
73154;SDS011;66341;52.418;7.382;2023-04-23T01:26:30;1.36;;;1.36;;
73154;SDS011;66341;52.418;7.382;2023-04-23T01:28:56;1.34;;;1.34;;
73154;SDS011;66341;52.418;7.382;2023-04-23T01:31:23;1.22;;;1.22;;
73154;SDS011;66341;52.418;7.382;2023-04-23T01:33:50;1.38;;;1.38;;
73154;SDS011;66341;52.418;7.382;2023-04-23T01:36:16;1.36;;;1.36;;
73154;SDS011;66341;52.418;7.382;2023-04-23T01:38:43;1.37;;;1.37;;
73154;SDS011;66341;52.418;7.382;2023-04-23T01:41:08;1.29;;;1.29;;
73154;SDS011;66341;52.418;7.382;2023-04-23T01:43:34;1.29;;;1.29;;
73154;SDS011;66341;52.418;7.382;2023-04-23T01:46:00;1.41;;;1.41;;
73154;SDS011;66341;52.418;7.382;2023-04-23T01:48:26;1.36;;;1.36;;
73154;SDS011;66341;52.418;7.382;2023-04-23T01:50:52;1.35;;;1.35;;
73154;SDS011;66341;52.418;7.382;2023-04-23T06:30:40;2.37;;;2.36;;
73154;SDS011;66341;52.418;7.382;2023-04-23T06:33:07;2.32;;;2.32;;
73154;SDS011;66341;52.418;7.382;2023-04-23T06:35:33;2.24;;;2.23;;
73154;SDS011;66341;52.418;7.382;2023-04-23T06:37:59;2.40;;;2.37;;
73154;SDS011;66341;52.418;7.382;2023-04-23T06:43:03;2.68;;;2.68;;
73154;SDS011;66341;52.418;7.382;2023-04-23T06:45:38;2.69;;;2.69;;
73154;SDS011;66341;52.418;7.382;2023-04-23T10:44:31;4.41;;;4.41;;
73154;SDS011;66341;52.418;7.382;2023-04-23T11:46:01;3.27;;;3.27;;
73154;SDS011;66341;52.418;7.382;2023-04-23T14:09:52;2.45;;;2.45;;
73154;SDS011;66341;52.418;7.382;2023-04-23T14:12:25;2.45;;;2.45;;
73154;SDS011;66341;52.418;7.382;2023-04-23T14:40:58;2.14;;;2.14;;
73154;SDS011;66341;52.418;7.382;2023-04-23T14:45:56;2.36;;;2.36;;
73154;SDS011;66341;52.418;7.382;2023-04-23T16:26:52;1.82;;;1.82;;
73154;SDS011;66341;52.418;7.382;2023-04-23T16:29:23;1.60;;;1.60;;
73154;SDS011;66341;52.418;7.382;2023-04-23T17:04:02;1.60;;;1.60;;
73154;SDS011;66341;52.418;7.382;2023-04-23T17:06:31;1.79;;;1.79;;
73154;SDS011;66341;52.418;7.382;2023-04-23T17:17:19;1.62;;;1.62;;
73154;SDS011;66341;52.418;7.382;2023-04-23T17:19:48;1.74;;;1.74;;
73154;SDS011;66341;52.418;7.382;2023-04-23T17:22:22;1.80;;;1.80;;
73154;SDS011;66341;52.418;7.382;2023-04-23T17:25:00;1.59;;;1.59;;
73154;SDS011;66341;52.418;7.382;2023-04-23T17:27:27;1.68;;;1.68;;
73154;SDS011;66341;52.418;7.382;2023-04-23T17:29:55;1.53;;;1.53;;
73154;SDS011;66341;52.418;7.382;2023-04-23T17:37:35;1.60;;;1.60;;
73154;SDS011;66341;52.418;7.382;2023-04-23T17:40:13;1.64;;;1.64;;
73154;SDS011;66341;52.418;7.382;2023-04-23T17:42:47;1.68;;;1.68;;
73154;SDS011;66341;52.418;7.382;2023-04-23T17:45:16;1.49;;;1.49;;
73154;SDS011;66341;52.418;7.382;2023-04-23T18:19:12;1.46;;;1.46;;
73154;SDS011;66341;52.418;7.382;2023-04-23T18:27:11;1.58;;;1.58;;
73154;SDS011;66341;52.418;7.382;2023-04-23T18:29:41;1.62;;;1.62;;
73154;SDS011;66341;52.418;7.382;2023-04-23T18:37:42;1.63;;;1.63;;
73154;SDS011;66341;52.418;7.382;2023-04-23T18:40:12;1.37;;;1.37;;
73154;SDS011;66341;52.418;7.382;2023-04-23T18:42:38;1.51;;;1.51;;
73154;SDS011;66341;52.418;7.382;2023-04-23T18:59:03;1.62;;;1.62;;
73154;SDS011;66341;52.418;7.382;2023-04-23T19:01:30;1.53;;;1.53;;
73154;SDS011;66341;52.418;7.382;2023-04-23T19:03:56;1.47;;;1.47;;
73154;SDS011;66341;52.418;7.382;2023-04-23T19:06:23;1.43;;;1.43;;
73154;SDS011;66341;52.418;7.382;2023-04-23T19:08:54;1.48;;;1.48;;
73154;SDS011;66341;52.418;7.382;2023-04-23T19:11:25;1.48;;;1.48;;
73154;SDS011;66341;52.418;7.382;2023-04-23T19:13:54;1.59;;;1.59;;
73154;SDS011;66341;52.418;7.382;2023-04-23T19:16:20;1.56;;;1.56;;
73154;SDS011;66341;52.418;7.382;2023-04-23T19:18:49;1.46;;;1.46;;
73154;SDS011;66341;52.418;7.382;2023-04-23T19:21:15;1.59;;;1.59;;
73154;SDS011;66341;52.418;7.382;2023-04-23T19:23:44;1.61;;;1.61;;
73154;SDS011;66341;52.418;7.382;2023-04-23T19:26:09;1.51;;;1.51;;
73154;SDS011;66341;52.418;7.382;2023-04-23T19:28:35;1.47;;;1.47;;
73154;SDS011;66341;52.418;7.382;2023-04-23T19:31:09;1.76;;;1.76;;
73154;SDS011;66341;52.418;7.382;2023-04-23T19:33:38;1.46;;;1.46;;
73154;SDS011;66341;52.418;7.382;2023-04-23T19:36:07;1.54;;;1.54;;
73154;SDS011;66341;52.418;7.382;2023-04-23T19:38:36;1.42;;;1.42;;
73154;SDS011;66341;52.418;7.382;2023-04-23T19:41:10;1.46;;;1.46;;
73154;SDS011;66341;52.418;7.382;2023-04-23T19:43:59;1.43;;;1.43;;
73154;SDS011;66341;52.418;7.382;2023-04-23T19:46:27;1.51;;;1.51;;
73154;SDS011;66341;52.418;7.382;2023-04-23T19:48:53;1.42;;;1.42;;
73154;SDS011;66341;52.418;7.382;2023-04-23T19:51:23;1.41;;;1.41;;
73154;SDS011;66341;52.418;7.382;2023-04-23T19:53:54;1.36;;;1.36;;
73154;SDS011;66341;52.418;7.382;2023-04-23T19:56:27;1.41;;;1.41;;
73154;SDS011;66341;52.418;7.382;2023-04-23T19:58:56;1.49;;;1.49;;
73154;SDS011;66341;52.418;7.382;2023-04-23T20:01:25;1.43;;;1.43;;
73154;SDS011;66341;52.418;7.382;2023-04-23T20:03:54;1.47;;;1.47;;
73154;SDS011;66341;52.418;7.382;2023-04-23T20:11:33;1.40;;;1.40;;
73154;SDS011;66341;52.418;7.382;2023-04-23T20:14:03;1.27;;;1.27;;
73154;SDS011;66341;52.418;7.382;2023-04-23T20:16:28;1.35;;;1.35;;
73154;SDS011;66341;52.418;7.382;2023-04-23T20:18:54;1.35;;;1.35;;
73154;SDS011;66341;52.418;7.382;2023-04-23T20:21:21;1.12;;;1.12;;
73154;SDS011;66341;52.418;7.382;2023-04-23T20:23:47;1.22;;;1.22;;
73154;SDS011;66341;52.418;7.382;2023-04-23T20:26:15;1.35;;;1.35;;
73154;SDS011;66341;52.418;7.382;2023-04-23T20:28:47;1.29;;;1.29;;
73154;SDS011;66341;52.418;7.382;2023-04-23T20:31:16;1.24;;;1.24;;
73154;SDS011;66341;52.418;7.382;2023-04-23T20:34:05;1.19;;;1.19;;
73154;SDS011;66341;52.418;7.382;2023-04-23T20:36:38;1.38;;;1.38;;
73154;SDS011;66341;52.418;7.382;2023-04-23T20:39:15;1.23;;;1.23;;
73154;SDS011;66341;52.418;7.382;2023-04-23T20:41:45;1.31;;;1.31;;
73154;SDS011;66341;52.418;7.382;2023-04-23T20:44:11;1.16;;;1.16;;
73154;SDS011;66341;52.418;7.382;2023-04-23T20:46:40;1.17;;;1.17;;
73154;SDS011;66341;52.418;7.382;2023-04-23T20:49:09;1.36;;;1.36;;
73154;SDS011;66341;52.418;7.382;2023-04-23T20:51:40;1.13;;;1.13;;
73154;SDS011;66341;52.418;7.382;2023-04-23T20:54:09;1.09;;;1.09;;
73154;SDS011;66341;52.418;7.382;2023-04-23T20:56:35;1.26;;;1.26;;
73154;SDS011;66341;52.418;7.382;2023-04-23T20:59:02;1.22;;;1.22;;
73154;SDS011;66341;52.418;7.382;2023-04-23T21:06:41;1.08;;;1.08;;
73154;SDS011;66341;52.418;7.382;2023-04-23T21:09:12;1.14;;;1.14;;
73154;SDS011;66341;52.418;7.382;2023-04-23T21:11:44;1.21;;;1.21;;
73154;SDS011;66341;52.418;7.382;2023-04-23T21:14:13;1.05;;;1.05;;
73154;SDS011;66341;52.418;7.382;2023-04-23T21:16:39;1.10;;;1.10;;
73154;SDS011;66341;52.418;7.382;2023-04-23T21:19:07;1.27;;;1.27;;
73154;SDS011;66341;52.418;7.382;2023-04-23T21:21:37;1.12;;;1.12;;
73154;SDS011;66341;52.418;7.382;2023-04-23T21:24:08;1.06;;;1.06;;
73154;SDS011;66341;52.418;7.382;2023-04-23T21:49:48;0.97;;;0.97;;
73154;SDS011;66341;52.418;7.382;2023-04-23T21:52:14;1.10;;;1.10;;
73154;SDS011;66341;52.418;7.382;2023-04-23T21:54:41;1.07;;;1.07;;
73154;SDS011;66341;52.418;7.382;2023-04-23T21:57:07;1.05;;;1.05;;
73154;SDS011;66341;52.418;7.382;2023-04-23T21:59:33;1.11;;;1.11;;
73154;SDS011;66341;52.418;7.382;2023-04-23T22:01:58;1.00;;;1.00;;
73154;SDS011;66341;52.418;7.382;2023-04-23T22:04:27;1.01;;;1.01;;
73154;SDS011;66341;52.418;7.382;2023-04-23T22:06:53;1.13;;;1.13;;
73154;SDS011;66341;52.418;7.382;2023-04-23T22:09:19;1.06;;;1.06;;
73154;SDS011;66341;52.418;7.382;2023-04-23T22:11:44;1.06;;;1.06;;
73154;SDS011;66341;52.418;7.382;2023-04-23T22:14:13;0.97;;;0.97;;
73154;SDS011;66341;52.418;7.382;2023-04-23T22:22:21;1.13;;;1.13;;
73154;SDS011;66341;52.418;7.382;2023-04-23T22:24:50;1.07;;;1.07;;
73154;SDS011;66341;52.418;7.382;2023-04-23T22:27:21;1.13;;;1.13;;
73154;SDS011;66341;52.418;7.382;2023-04-23T22:35:14;1.02;;;1.02;;
73154;SDS011;66341;52.418;7.382;2023-04-23T22:37:40;1.09;;;1.09;;
73154;SDS011;66341;52.418;7.382;2023-04-23T22:40:07;1.06;;;1.06;;
73154;SDS011;66341;52.418;7.382;2023-04-23T22:42:36;1.06;;;1.06;;
73154;SDS011;66341;52.418;7.382;2023-04-23T22:45:02;0.98;;;0.98;;
73154;SDS011;66341;52.418;7.382;2023-04-23T22:47:32;1.11;;;1.11;;
73154;SDS011;66341;52.418;7.382;2023-04-23T22:49:57;1.06;;;1.06;;
73154;SDS011;66341;52.418;7.382;2023-04-23T22:52:23;1.03;;;1.03;;
73154;SDS011;66341;52.418;7.382;2023-04-23T22:54:49;0.97;;;0.97;;
73154;SDS011;66341;52.418;7.382;2023-04-23T22:57:16;0.99;;;0.99;;
73154;SDS011;66341;52.418;7.382;2023-04-23T22:59:41;1.01;;;1.01;;
73154;SDS011;66341;52.418;7.382;2023-04-23T23:02:07;1.05;;;1.05;;
73154;SDS011;66341;52.418;7.382;2023-04-23T23:04:33;0.97;;;0.97;;
73154;SDS011;66341;52.418;7.382;2023-04-23T23:07:02;1.01;;;1.01;;
73154;SDS011;66341;52.418;7.382;2023-04-23T23:09:30;0.94;;;0.94;;
73154;SDS011;66341;52.418;7.382;2023-04-23T23:12:01;0.94;;;0.94;;
73154;SDS011;66341;52.418;7.382;2023-04-23T23:14:27;0.97;;;0.97;;
73154;SDS011;66341;52.418;7.382;2023-04-23T23:16:54;0.79;;;0.79;;
73154;SDS011;66341;52.418;7.382;2023-04-23T23:19:21;0.93;;;0.93;;
73154;SDS011;66341;52.418;7.382;2023-04-23T23:21:47;0.90;;;0.90;;
73154;SDS011;66341;52.418;7.382;2023-04-23T23:24:12;0.93;;;0.93;;
73154;SDS011;66341;52.418;7.382;2023-04-23T23:26:38;0.95;;;0.95;;
73154;SDS011;66341;52.418;7.382;2023-04-23T23:29:04;0.89;;;0.89;;
73154;SDS011;66341;52.418;7.382;2023-04-23T23:31:35;0.76;;;0.76;;
73154;SDS011;66341;52.418;7.382;2023-04-23T23:34:04;0.82;;;0.82;;
73154;SDS011;66341;52.418;7.382;2023-04-23T23:36:30;0.90;;;0.90;;
73154;SDS011;66341;52.418;7.382;2023-04-23T23:38:57;0.86;;;0.86;;
73154;SDS011;66341;52.418;7.382;2023-04-23T23:41:22;0.89;;;0.89;;
73154;SDS011;66341;52.418;7.382;2023-04-23T23:43:48;0.76;;;0.76;;
73154;SDS011;66341;52.418;7.382;2023-04-23T23:46:14;0.89;;;0.89;;
73154;SDS011;66341;52.418;7.382;2023-04-23T23:48:42;0.70;;;0.70;;
73154;SDS011;66341;52.418;7.382;2023-04-23T23:51:08;0.90;;;0.90;;
73154;SDS011;66341;52.418;7.382;2023-04-23T23:53:34;0.75;;;0.75;;
73154;SDS011;66341;52.418;7.382;2023-04-23T23:55:59;0.71;;;0.71;;
73154;SDS011;66341;52.418;7.382;2023-04-23T23:58:25;0.81;;;0.81;;
